Time;durP1;ratioP1;P1;durP2;ratioP2;P2;SDS_P1;SDS_P2;PMS_P1;PMS_P2;Temp;Humidity;BMP_temperature;BMP_pressure;BME280_temperature;BME280_humidity;BME280_pressure;Samples;Min_cycle;Max_cycle;Signal;HPM_P1;HPM_P2
2021/01/05 00:00:15;;;;;;;4.90;2.70;;;3.10;99.90;;;;;;5097665;28;19958;-53
2021/01/05 00:02:40;;;;;;;4.53;2.40;;;3.00;99.90;;;;;;5097753;28;20055;-53
2021/01/05 00:05:07;;;;;;;8.87;2.70;;;3.00;99.90;;;;;;5097650;28;20032;-53
2021/01/05 00:07:33;;;;;;;9.33;2.30;;;3.00;99.90;;;;;;5097723;28;20076;-53
2021/01/05 00:09:59;;;;;;;7.50;2.07;;;3.00;99.90;;;;;;5097786;28;19912;-53
2021/01/05 00:12:25;;;;;;;10.13;2.50;;;3.10;99.90;;;;;;5097581;28;20495;-53
2021/01/05 00:14:50;;;;;;;4.40;2.20;;;3.10;99.90;;;;;;5097883;28;20028;-53
2021/01/05 00:17:20;;;;;;;6.00;2.60;;;3.10;99.90;;;;;;5097489;28;19931;-53
2021/01/05 00:19:46;;;;;;;3.97;2.23;;;3.10;99.90;;;;;;5094377;28;20028;-53
2021/01/05 00:22:13;;;;;;;8.00;3.07;;;3.10;99.90;;;;;;5076717;28;20135;-53
2021/01/05 00:24:39;;;;;;;4.93;2.80;;;3.10;99.90;;;;;;5076845;28;19908;-53
2021/01/05 00:27:05;;;;;;;8.37;4.10;;;3.00;99.90;;;;;;5076934;28;20339;-53
2021/01/05 00:29:30;;;;;;;4.70;2.43;;;3.00;99.90;;;;;;5077437;28;20056;-53
2021/01/05 00:32:07;;;;;;;7.50;2.37;;;3.00;99.90;;;;;;5076582;28;20029;-54
2021/01/05 00:34:33;;;;;;;4.93;2.60;;;3.10;99.90;;;;;;5076706;28;20099;-53
2021/01/05 00:36:59;;;;;;;5.60;2.70;;;3.10;99.90;;;;;;5075449;28;20002;-53
2021/01/05 00:39:24;;;;;;;4.37;2.30;;;3.10;99.90;;;;;;5096835;28;20397;-53
2021/01/05 00:41:50;;;;;;;5.60;2.13;;;3.10;99.90;;;;;;5097083;28;20442;-54
2021/01/05 00:44:16;;;;;;;4.13;2.13;;;3.10;99.90;;;;;;5095425;28;20431;-53
2021/01/05 00:46:41;;;;;;;7.57;2.20;;;3.10;99.90;;;;;;5096828;28;20024;-54
2021/01/05 00:49:07;;;;;;;6.13;3.00;;;3.10;99.90;;;;;;5097629;28;20119;-53
2021/01/05 00:51:32;;;;;;;3.70;2.47;;;3.00;99.90;;;;;;5096891;28;20525;-54
2021/01/05 00:53:58;;;;;;;5.90;2.00;;;3.10;99.90;;;;;;5096473;28;20062;-52
2021/01/05 00:56:24;;;;;;;8.67;2.60;;;3.10;99.90;;;;;;5096330;28;20114;-55
2021/01/05 00:58:49;;;;;;;5.20;2.47;;;3.10;99.90;;;;;;5096720;28;20027;-55
2021/01/05 01:01:15;;;;;;;9.10;2.47;;;3.10;99.90;;;;;;5095567;28;20055;-55
2021/01/05 01:03:41;;;;;;;2.93;1.50;;;3.10;99.90;;;;;;5096815;28;20020;-55
2021/01/05 01:06:07;;;;;;;10.77;2.53;;;3.10;99.90;;;;;;5096919;28;19919;-55
2021/01/05 01:08:32;;;;;;;9.33;2.47;;;3.10;99.90;;;;;;5096389;28;20346;-54
2021/01/05 01:10:58;;;;;;;5.17;1.90;;;3.10;99.90;;;;;;5078808;28;20044;-55
2021/01/05 01:13:24;;;;;;;6.97;2.23;;;3.10;99.90;;;;;;5096512;28;20127;-55
2021/01/05 01:15:50;;;;;;;2.70;1.87;;;3.10;99.90;;;;;;5096449;28;20411;-55
2021/01/05 01:18:15;;;;;;;5.53;1.67;;;3.10;99.90;;;;;;5096470;28;20028;-55
2021/01/05 01:20:41;;;;;;;5.57;2.27;;;3.10;99.90;;;;;;5096380;28;20039;-53
2021/01/05 01:23:07;;;;;;;5.50;2.37;;;3.10;99.90;;;;;;5096126;28;20027;-55
2021/01/05 01:25:32;;;;;;;9.67;2.47;;;3.10;99.90;;;;;;5096360;28;20031;-53
2021/01/05 01:27:58;;;;;;;5.33;2.23;;;3.00;99.90;;;;;;5096707;28;20031;-53
2021/01/05 01:30:24;;;;;;;6.00;2.13;;;3.00;99.90;;;;;;5096303;28;20439;-54
2021/01/05 01:32:50;;;;;;;5.20;1.67;;;3.00;99.90;;;;;;5096414;28;20028;-55
2021/01/05 01:35:16;;;;;;;4.73;2.13;;;3.00;99.90;;;;;;5096350;28;19908;-53
2021/01/05 01:37:42;;;;;;;7.80;2.37;;;3.00;99.90;;;;;;5096537;28;20027;-53
2021/01/05 01:40:09;;;;;;;7.13;2.57;;;3.00;99.90;;;;;;5096188;28;20119;-53
2021/01/05 01:42:35;;;;;;;6.57;2.20;;;3.00;99.90;;;;;;5096505;28;19904;-53
2021/01/05 01:45:01;;;;;;;4.95;3.05;;;3.00;99.90;;;;;;5096044;28;20323;-53
2021/01/05 01:47:38;;;;;;;4.67;1.90;;;3.00;99.90;;;;;;5096044;28;19915;-53
2021/01/05 01:50:11;;;;;;;3.87;2.87;;;3.00;99.90;;;;;;5099758;28;20028;-53
2021/01/05 01:53:14;;;;;;;9.17;3.03;;;3.00;99.90;;;;;;5100532;28;20260;-53
2021/01/05 01:56:17;;;;;;;6.70;2.20;;;3.00;99.90;;;;;;5100389;28;20289;-53
2021/01/05 01:59:04;;;;;;;4.70;2.30;;;3.00;99.90;;;;;;5098793;28;20706;-53
2021/01/05 02:01:46;;;;;;;6.77;3.13;;;2.90;99.90;;;;;;5100170;28;20320;-53
2021/01/05 02:04:32;;;;;;;8.77;4.07;;;3.00;99.90;;;;;;5098676;28;20245;-53
2021/01/05 02:07:01;;;;;;;6.53;2.93;;;3.00;99.90;;;;;;5100175;28;19910;-53
2021/01/05 02:09:46;;;;;;;5.50;2.50;;;2.90;99.90;;;;;;5100087;28;20256;-53
2021/01/05 02:12:19;;;;;;;5.10;2.27;;;2.90;99.90;;;;;;5099662;28;19904;-53
2021/01/05 02:15:18;;;;;;;6.75;2.35;;;2.90;99.90;;;;;;5099852;28;20281;-53
2021/01/05 02:18:25;;;;;;;9.43;3.63;;;2.80;99.90;;;;;;5099952;28;20100;-53
2021/01/05 02:21:00;;;;;;;7.47;3.20;;;2.90;99.90;;;;;;5075778;28;20284;-53
2021/01/05 02:23:48;;;;;;;6.37;2.87;;;2.90;99.90;;;;;;5079489;28;20735;-53
2021/01/05 02:26:23;;;;;;;10.57;2.93;;;2.90;99.90;;;;;;5079298;28;20034;-53
2021/01/05 02:29:00;;;;;;;6.50;3.27;;;2.90;99.90;;;;;;5079582;28;19940;-53
2021/01/05 02:31:44;;;;;;;6.70;2.93;;;2.90;99.90;;;;;;5079591;28;20288;-53
2021/01/05 02:34:25;;;;;;;8.05;2.80;;;2.90;99.90;;;;;;5079701;28;20025;-53
2021/01/05 02:37:22;;;;;;;6.70;2.77;;;2.90;99.90;;;;;;5079238;28;20016;-53
2021/01/05 02:39:54;;;;;;;8.73;2.60;;;2.90;99.90;;;;;;5079214;28;19904;-53
2021/01/05 02:42:27;;;;;;;6.40;2.80;;;2.90;99.90;;;;;;5079328;28;20253;-53
2021/01/05 02:45:31;;;;;;;4.75;2.83;;;2.80;99.90;;;;;;5078638;28;19908;-52
2021/01/05 02:48:15;;;;;;;;;;;2.90;99.90;;;;;;5078998;28;20035;-52
2021/01/05 02:50:55;;;;;;;6.33;2.43;;;2.90;99.90;;;;;;5078652;28;19904;-52
2021/01/05 02:53:32;;;;;;;7.50;2.93;;;2.90;99.90;;;;;;5079152;28;20035;-53
2021/01/05 02:56:36;;;;;;;4.63;2.60;;;2.90;99.90;;;;;;5078692;28;20032;-52
2021/01/05 02:59:13;;;;;;;;;;;2.90;99.90;;;;;;5057984;28;19997;-52
2021/01/05 03:02:03;;;;;;;4.87;1.90;;;2.90;99.90;;;;;;5077511;28;19920;-52
2021/01/05 03:04:29;;;;;;;6.30;3.10;;;2.90;99.90;;;;;;5078568;28;19904;-52
2021/01/05 03:07:00;;;;;;;5.37;2.10;;;2.90;99.90;;;;;;5078791;28;20431;-52
2021/01/05 03:09:50;;;;;;;7.07;2.20;;;2.90;99.90;;;;;;5078608;28;20024;-52
2021/01/05 03:12:19;;;;;;;13.47;2.47;;;2.90;99.90;;;;;;5078863;28;20257;-52
2021/01/05 03:15:07;;;;;;;5.07;2.40;;;2.90;99.90;;;;;;5096805;28;20257;-52
2021/01/05 03:17:43;;;;;;;6.47;2.57;;;2.80;99.90;;;;;;5098953;28;20256;-52
2021/01/05 03:20:32;;;;;;;6.07;2.07;;;2.90;99.90;;;;;;5092792;28;19912;-52
2021/01/05 03:23:04;;;;;;;6.03;2.30;;;2.90;99.90;;;;;;5075346;28;20257;-53
2021/01/05 03:25:35;;;;;;;7.07;2.28;;;2.90;99.90;;;;;;5078474;28;19987;-52
2021/01/05 03:28:04;;;;;;;6.97;2.40;;;2.90;99.90;;;;;;5078179;28;20215;-52
2021/01/05 03:30:37;;;;;;;8.15;1.95;;;2.90;99.90;;;;;;5080264;28;20011;-52
2021/01/05 03:33:03;;;;;;;4.03;2.10;;;2.90;99.90;;;;;;5098541;28;19970;-52
2021/01/05 03:35:29;;;;;;;5.77;1.63;;;2.90;99.90;;;;;;5098562;28;20030;-52
2021/01/05 03:37:56;;;;;;;5.83;2.00;;;2.90;99.90;;;;;;5098454;28;19904;-53
2021/01/05 03:40:22;;;;;;;4.17;2.10;;;2.80;99.90;;;;;;5098212;28;20203;-52
2021/01/05 03:42:47;;;;;;;3.80;1.70;;;2.90;99.90;;;;;;5098370;28;20263;-52
2021/01/05 03:45:26;;;;;;;3.83;1.80;;;2.80;99.90;;;;;;5097779;28;20053;-53
2021/01/05 03:47:52;;;;;;;12.83;2.30;;;2.90;99.90;;;;;;5098331;28;19989;-52
2021/01/05 03:50:19;;;;;;;4.90;1.87;;;2.90;99.90;;;;;;5098056;28;19904;-52
2021/01/05 03:52:45;;;;;;;5.53;1.87;;;2.90;99.90;;;;;;5098072;28;20257;-53
2021/01/05 03:55:12;;;;;;;3.33;1.47;;;2.90;99.90;;;;;;5097814;28;19977;-52
2021/01/05 03:57:38;;;;;;;4.63;1.80;;;2.90;99.90;;;;;;5097770;28;20024;-52
2021/01/05 04:00:10;;;;;;;5.27;1.40;;;2.90;99.90;;;;;;5098328;28;19912;-52
2021/01/05 04:02:36;;;;;;;5.50;1.47;;;2.90;99.90;;;;;;5097630;28;19959;-53
2021/01/05 04:05:03;;;;;;;3.63;2.10;;;2.90;99.90;;;;;;5097701;28;19954;-52
2021/01/05 04:07:28;;;;;;;9.00;1.77;;;2.90;99.90;;;;;;5097893;28;20378;-52
2021/01/05 04:09:54;;;;;;;6.30;1.80;;;2.90;99.90;;;;;;5097331;28;19951;-51
2021/01/05 04:12:20;;;;;;;4.03;1.20;;;2.90;99.90;;;;;;5097390;28;20115;-52
2021/01/05 04:14:45;;;;;;;4.55;1.30;;;2.90;99.90;;;;;;5097872;28;19958;-52
2021/01/05 04:17:11;;;;;;;6.47;2.30;;;2.90;99.90;;;;;;5097711;28;20135;-52
2021/01/05 04:19:38;;;;;;;3.77;1.00;;;2.90;99.90;;;;;;5097173;28;20140;-53
2021/01/05 04:22:04;;;;;;;6.47;2.27;;;2.90;99.90;;;;;;5097299;28;20047;-52
2021/01/05 04:24:29;;;;;;;6.50;1.60;;;2.90;99.90;;;;;;5096350;28;20063;-52
2021/01/05 04:26:55;;;;;;;4.60;1.27;;;2.80;99.90;;;;;;5098094;28;20039;-52
2021/01/05 04:29:20;;;;;;;4.03;1.83;;;2.70;99.90;;;;;;5096970;28;20032;-52
2021/01/05 04:31:46;;;;;;;3.83;1.63;;;2.70;99.90;;;;;;5097553;28;20024;-52
2021/01/05 04:34:15;;;;;;;5.53;1.67;;;2.60;99.90;;;;;;5096204;28;20032;-52
2021/01/05 04:36:41;;;;;;;4.77;1.67;;;2.50;99.90;;;;;;5096991;28;20114;-52
2021/01/05 04:39:08;;;;;;;4.90;1.60;;;2.40;99.90;;;;;;5097374;28;20311;-52
2021/01/05 04:41:46;;;;;;;5.60;1.37;;;2.40;99.90;;;;;;5097180;28;20024;-52
2021/01/05 04:44:15;;;;;;;4.17;1.93;;;2.30;99.90;;;;;;5097172;28;20694;-53
2021/01/05 04:46:53;;;;;;;3.55;1.30;;;2.30;99.90;;;;;;5097080;28;20048;-52
2021/01/05 04:49:47;;;;;;;4.47;1.60;;;2.20;99.90;;;;;;5097252;28;20659;-52
2021/01/05 04:52:17;;;;;;;6.03;1.90;;;2.20;99.90;;;;;;5097257;28;20252;-52
2021/01/05 04:54:50;;;;;;;2.77;1.10;;;2.10;99.90;;;;;;5096676;28;20075;-52
2021/01/05 04:57:19;;;;;;;6.00;1.27;;;2.10;99.90;;;;;;5097097;28;20252;-52
2021/01/05 04:59:57;;;;;;;2.33;1.20;;;2.10;99.90;;;;;;5096862;28;20052;-52
2021/01/05 05:02:29;;;;;;;4.60;1.23;;;2.00;99.90;;;;;;5095269;28;20091;-52
2021/01/05 05:05:04;;;;;;;2.43;0.97;;;2.00;99.90;;;;;;5097007;28;20107;-52
2021/01/05 05:07:51;;;;;;;2.70;1.70;;;2.00;99.90;;;;;;5096268;28;20146;-52
2021/01/05 05:10:28;;;;;;;3.43;1.33;;;1.90;99.90;;;;;;5096925;28;20064;-52
2021/01/05 05:13:12;;;;;;;3.97;1.90;;;1.90;99.90;;;;;;5096923;28;20082;-52
2021/01/05 05:15:53;;;;;;;6.37;1.30;;;1.80;99.90;;;;;;5096841;28;20248;-52
2021/01/05 05:18:47;;;;;;;4.27;1.30;;;1.80;99.90;;;;;;5096350;28;20064;-52
2021/01/05 05:21:34;;;;;;;4.97;1.35;;;1.80;99.90;;;;;;5081417;28;20284;-52
2021/01/05 05:24:24;;;;;;;6.67;1.23;;;1.80;99.90;;;;;;5076114;28;20317;-52
2021/01/05 05:26:58;;;;;;;4.60;1.73;;;1.70;99.90;;;;;;5076534;28;20055;-52
2021/01/05 05:29:30;;;;;;;4.13;1.80;;;1.70;99.90;;;;;;5076553;28;20521;-52
2021/01/05 05:32:00;;;;;;;3.33;1.47;;;1.70;99.90;;;;;;5076401;28;20061;-52
2021/01/05 05:34:30;;;;;;;3.60;1.40;;;1.80;99.90;;;;;;5076714;28;20675;-52
2021/01/05 05:37:18;;;;;;;3.80;1.43;;;1.80;99.90;;;;;;5076069;28;20152;-52
2021/01/05 05:40:01;;;;;;;8.87;1.70;;;1.90;99.90;;;;;;5076418;28;20074;-52
2021/01/05 05:43:11;;;;;;;8.35;1.52;;;1.90;99.90;;;;;;5076525;28;20629;-52
2021/01/05 05:45:56;;;;;;;6.10;1.40;;;1.90;99.90;;;;;;5053320;28;20060;-52
2021/01/05 05:48:39;;;;;;;3.10;1.55;;;2.00;99.90;;;;;;5074533;28;20257;-52
2021/01/05 05:51:13;;;;;;;3.57;1.00;;;2.00;99.90;;;;;;5091604;28;20068;-52
2021/01/05 05:53:54;;;;;;;4.97;1.40;;;2.00;99.90;;;;;;5076054;28;20167;-52
2021/01/05 05:56:33;;;;;;;5.40;1.50;;;1.90;99.90;;;;;;5075963;28;20397;-52
2021/01/05 05:58:59;;;;;;;7.50;3.10;;;1.90;99.90;;;;;;5075631;28;20064;-52
2021/01/05 06:01:30;;;;;;;5.37;2.90;;;2.00;99.90;;;;;;5075811;28;20085;-52
2021/01/05 06:04:00;;;;;;;3.40;2.00;;;2.00;99.90;;;;;;5075815;28;20245;-52
2021/01/05 06:06:26;;;;;;;3.15;1.75;;;2.00;99.90;;;;;;5076402;28;20691;-52
2021/01/05 06:08:52;;;;;;;3.80;2.03;;;2.10;99.90;;;;;;5075840;28;20344;-52
2021/01/05 06:11:18;;;;;;;6.93;1.80;;;2.10;99.90;;;;;;5084390;28;20344;-52
2021/01/05 06:13:43;;;;;;;9.60;3.97;;;2.10;99.90;;;;;;5095702;28;20028;-52
2021/01/05 06:16:09;;;;;;;7.03;1.40;;;2.10;99.90;;;;;;5096494;28;20035;-52
2021/01/05 06:18:34;;;;;;;4.67;1.57;;;2.10;99.90;;;;;;5095831;28;20444;-52
2021/01/05 06:21:00;;;;;;;4.70;1.40;;;2.20;99.90;;;;;;5095498;28;20050;-52
2021/01/05 06:23:26;;;;;;;6.10;2.20;;;2.20;99.90;;;;;;5095842;28;20020;-52
2021/01/05 06:25:51;;;;;;;6.33;1.60;;;2.20;99.90;;;;;;5095694;28;20028;-52
2021/01/05 06:28:17;;;;;;;5.77;1.47;;;2.20;99.90;;;;;;5095846;28;20089;-52
2021/01/05 06:30:43;;;;;;;8.07;2.67;;;2.30;99.90;;;;;;5094368;28;19912;-52
2021/01/05 06:33:08;;;;;;;8.47;1.20;;;2.30;99.90;;;;;;5095227;28;20028;-52
2021/01/05 06:35:34;;;;;;;3.40;1.43;;;2.30;99.90;;;;;;5096449;28;20337;-52
2021/01/05 06:38:00;;;;;;;6.27;1.73;;;2.30;99.90;;;;;;5099173;28;20039;-52
2021/01/05 06:40:27;;;;;;;5.20;1.30;;;2.30;99.90;;;;;;5099368;28;20130;-52
2021/01/05 06:42:53;;;;;;;3.17;1.10;;;2.30;99.90;;;;;;5099120;28;20121;-52
2021/01/05 06:45:25;;;;;;;4.73;1.50;;;2.30;99.90;;;;;;5099138;28;20075;-52
2021/01/05 06:47:52;;;;;;;4.80;1.53;;;2.30;99.90;;;;;;5099642;28;20321;-52
2021/01/05 06:50:19;;;;;;;3.37;1.80;;;2.20;99.90;;;;;;5099134;28;19908;-52
2021/01/05 06:52:44;;;;;;;4.57;2.30;;;2.30;99.90;;;;;;5099197;28;20252;-52
2021/01/05 06:55:10;;;;;;;4.10;1.50;;;2.20;99.90;;;;;;5099062;28;20279;-52
2021/01/05 06:57:36;;;;;;;6.43;2.43;;;2.20;99.90;;;;;;5099370;28;20064;-52
2021/01/05 07:00:05;;;;;;;6.30;2.23;;;2.20;99.90;;;;;;5097509;28;20251;-52
2021/01/05 07:02:30;;;;;;;4.07;1.77;;;2.10;99.90;;;;;;5099036;28;20059;-51
2021/01/05 07:04:56;;;;;;;4.40;2.10;;;2.10;99.90;;;;;;5098755;28;20264;-52
2021/01/05 07:07:22;;;;;;;5.40;2.70;;;2.00;99.90;;;;;;5098552;28;20035;-51
2021/01/05 07:09:47;;;;;;;7.40;2.47;;;1.90;99.90;;;;;;5099024;28;20070;-52
2021/01/05 07:12:13;;;;;;;10.10;4.75;;;1.90;99.90;;;;;;5098815;28;20062;-52
2021/01/05 07:14:38;;;;;;;5.17;2.53;;;1.80;99.90;;;;;;5098082;28;19970;-52
2021/01/05 07:17:04;;;;;;;7.20;2.43;;;1.80;99.90;;;;;;5097001;28;20032;-52
2021/01/05 07:19:30;;;;;;;8.30;3.17;;;1.70;99.90;;;;;;5098140;28;20031;-52
2021/01/05 07:21:55;;;;;;;6.80;3.70;;;1.70;99.90;;;;;;5077252;28;20458;-52
2021/01/05 07:24:21;;;;;;;7.07;2.73;;;1.70;99.90;;;;;;5077911;28;20081;-52
2021/01/05 07:26:49;;;;;;;6.20;3.13;;;1.60;99.90;;;;;;5078519;28;19957;-52
2021/01/05 07:29:18;;;;;;;8.80;2.70;;;1.60;99.90;;;;;;5078178;28;20031;-52
2021/01/05 07:31:44;;;;;;;7.20;3.10;;;1.60;99.90;;;;;;5078587;28;20622;-52
2021/01/05 07:34:11;;;;;;;6.47;3.40;;;1.60;99.90;;;;;;5078109;28;20403;-52
2021/01/05 07:36:40;;;;;;;5.70;2.93;;;1.60;99.90;;;;;;5078184;28;20083;-52
2021/01/05 07:39:33;;;;;;;5.03;3.13;;;1.60;99.90;;;;;;5078331;28;20138;-52
2021/01/05 07:42:17;;;;;;;6.83;2.80;;;1.60;99.90;;;;;;5076754;28;20604;-52
2021/01/05 07:44:44;;;;;;;8.05;3.15;;;1.50;99.90;;;;;;5078139;28;20158;-52
2021/01/05 07:47:10;;;;;;;5.03;2.43;;;1.50;99.90;;;;;;5077547;28;20378;-52
2021/01/05 07:49:36;;;;;;;5.70;3.20;;;1.50;99.90;;;;;;5077505;28;20182;-52
2021/01/05 07:52:14;;;;;;;4.90;3.10;;;1.50;99.90;;;;;;5077692;28;20320;-51
2021/01/05 07:54:40;;;;;;;5.83;3.17;;;1.50;99.90;;;;;;5077793;28;20253;-52
2021/01/05 07:57:05;;;;;;;9.27;3.97;;;1.50;99.90;;;;;;5075976;28;20256;-52
2021/01/05 07:59:31;;;;;;;7.90;2.73;;;1.50;99.90;;;;;;5078043;28;20032;-52
2021/01/05 08:01:56;;;;;;;7.30;3.40;;;1.60;99.90;;;;;;5077277;28;19966;-52
2021/01/05 08:04:22;;;;;;;10.30;3.05;;;1.50;99.90;;;;;;5077695;28;20035;-52
2021/01/05 08:06:48;;;;;;;8.57;3.50;;;1.50;99.90;;;;;;5077018;28;19909;-52
2021/01/05 08:09:13;;;;;;;7.63;3.00;;;1.50;99.90;;;;;;5077912;28;20028;-52
2021/01/05 08:11:39;;;;;;;5.27;2.90;;;1.50;99.90;;;;;;5077099;28;20454;-52
2021/01/05 08:14:06;;;;;;;6.93;3.53;;;1.50;99.90;;;;;;5077586;28;20153;-52
2021/01/05 08:16:32;;;;;;;8.77;4.60;;;1.40;99.90;;;;;;5076900;28;20340;-52
2021/01/05 08:18:58;;;;;;;5.53;2.90;;;1.40;99.90;;;;;;5075918;28;20067;-52
2021/01/05 08:21:27;;;;;;;6.57;2.97;;;1.40;99.90;;;;;;5076859;28;20071;-52
2021/01/05 08:23:53;;;;;;;8.43;3.23;;;1.40;99.90;;;;;;5076947;28;20235;-52
2021/01/05 08:26:19;;;;;;;8.80;3.00;;;1.40;99.90;;;;;;5075804;28;20281;-52
2021/01/05 08:28:46;;;;;;;6.60;2.93;;;1.40;99.90;;;;;;5077322;28;20067;-52
2021/01/05 08:31:12;;;;;;;8.10;4.00;;;1.50;99.90;;;;;;5076406;28;20368;-52
2021/01/05 08:33:38;;;;;;;7.83;3.70;;;1.60;99.90;;;;;;5076560;28;20064;-52
2021/01/05 08:36:04;;;;;;;10.63;3.83;;;1.50;99.90;;;;;;5084113;28;20241;-52
2021/01/05 08:38:29;;;;;;;6.57;3.63;;;1.60;99.90;;;;;;5097507;28;20114;-52
2021/01/05 08:40:55;;;;;;;12.45;4.10;;;1.50;99.90;;;;;;5096705;28;20165;-52
2021/01/05 08:43:21;;;;;;;11.33;3.47;;;1.50;99.90;;;;;;5095894;28;20047;-52
2021/01/05 08:45:46;;;;;;;5.43;3.27;;;1.50;99.90;;;;;;5096848;28;20350;-52
2021/01/05 08:48:12;;;;;;;7.77;3.80;;;1.60;99.90;;;;;;5097185;28;20456;-52
2021/01/05 08:50:38;;;;;;;8.53;4.33;;;1.70;99.90;;;;;;5096717;28;19999;-52
2021/01/05 08:53:06;;;;;;;6.97;3.67;;;1.60;99.90;;;;;;5096541;28;20499;-54
2021/01/05 08:55:39;;;;;;;10.23;4.33;;;1.60;99.90;;;;;;5096837;28;20028;-51
2021/01/05 08:58:06;;;;;;;10.87;4.00;;;1.70;99.90;;;;;;5094990;28;20063;-51
2021/01/05 09:00:32;;;;;;;6.50;2.90;;;1.80;99.90;;;;;;5080413;28;20073;-51
2021/01/05 09:02:58;;;;;;;10.23;3.87;;;1.80;99.90;;;;;;5095249;28;20435;-52
2021/01/05 09:05:23;;;;;;;11.17;4.60;;;1.90;99.90;;;;;;5096241;28;20461;-52
2021/01/05 09:07:50;;;;;;;7.55;3.30;;;1.90;99.90;;;;;;5096284;28;20024;-52
2021/01/05 09:10:19;;;;;;;7.60;3.07;;;1.90;99.90;;;;;;5096020;28;20071;-52
2021/01/05 09:12:45;;;;;;;10.40;3.70;;;1.90;99.90;;;;;;5096401;28;20147;-52
2021/01/05 09:15:16;;;;;;;7.63;3.23;;;1.90;99.90;;;;;;5096168;28;20088;-52
2021/01/05 09:17:46;;;;;;;6.77;3.10;;;1.90;99.90;;;;;;5096402;28;20032;-52
2021/01/05 09:20:17;;;;;;;8.03;4.03;;;1.90;99.90;;;;;;5090394;28;20064;-52
2021/01/05 09:22:42;;;;;;;10.53;4.23;;;2.00;99.90;;;;;;5075936;28;20109;-52
2021/01/05 09:25:09;;;;;;;7.30;3.63;;;2.00;99.90;;;;;;5074442;28;20064;-52
2021/01/05 09:27:34;;;;;;;8.03;3.17;;;2.00;99.90;;;;;;5074639;28;20052;-51
2021/01/05 09:30:02;;;;;;;6.60;3.50;;;2.10;99.90;;;;;;5076221;28;20292;-52
2021/01/05 09:32:33;;;;;;;10.87;3.47;;;2.00;99.90;;;;;;5075559;28;20296;-52
2021/01/05 09:34:58;;;;;;;9.80;3.43;;;2.10;99.90;;;;;;5075670;28;20056;-51
2021/01/05 09:37:24;;;;;;;7.85;3.40;;;2.10;99.90;;;;;;5075647;28;20238;-51
2021/01/05 09:39:51;;;;;;;8.50;3.13;;;2.10;99.90;;;;;;5075626;28;20057;-55
2021/01/05 09:42:17;;;;;;;6.87;3.47;;;2.20;99.90;;;;;;5087597;28;20063;-52
2021/01/05 09:44:42;;;;;;;7.47;4.27;;;2.10;99.90;;;;;;5092428;28;20602;-52
2021/01/05 09:47:08;;;;;;;6.60;3.70;;;2.10;99.90;;;;;;5075511;28;20052;-52
2021/01/05 09:49:34;;;;;;;10.30;4.65;;;2.20;99.90;;;;;;5091225;28;20032;-51
2021/01/05 09:52:03;;;;;;;8.53;3.30;;;2.10;99.90;;;;;;5090546;28;20119;-52
2021/01/05 09:54:31;;;;;;;7.60;3.97;;;2.20;99.90;;;;;;5096271;28;20171;-52
2021/01/05 09:56:57;;;;;;;12.50;5.07;;;2.20;99.90;;;;;;5093572;28;20129;-52
2021/01/05 09:59:26;;;;;;;7.83;4.17;;;2.20;99.90;;;;;;5095289;28;20299;-52
2021/01/05 10:01:52;;;;;;;8.90;4.03;;;2.30;99.90;;;;;;5094439;28;20392;-52
2021/01/05 10:04:18;;;;;;;8.70;3.47;;;2.20;99.90;;;;;;5094762;28;20092;-52
2021/01/05 10:06:43;;;;;;;8.75;4.10;;;2.20;99.90;;;;;;5095289;28;20306;-52
2021/01/05 10:09:09;;;;;;;9.70;4.63;;;2.30;99.90;;;;;;5094679;28;20047;-52
2021/01/05 10:11:38;;;;;;;8.80;4.20;;;2.30;99.90;;;;;;5099855;28;20028;-51
2021/01/05 10:14:05;;;;;;;7.15;4.35;;;2.40;99.90;;;;;;5099883;28;20129;-52
2021/01/05 10:16:31;;;;;;;12.13;3.83;;;2.40;99.90;;;;;;5099183;28;20302;-52
2021/01/05 10:18:58;;;;;;;7.43;3.93;;;2.40;99.90;;;;;;5098181;28;20586;-52
2021/01/05 10:21:31;;;;;;;7.83;3.60;;;2.50;99.90;;;;;;5099521;28;20060;-52
2021/01/05 10:23:57;;;;;;;;;;;2.60;99.90;;;;;;5100113;28;20305;-52
2021/01/05 10:26:22;;;;;;;9.20;4.30;;;2.70;99.90;;;;;;5098023;28;20233;-53
2021/01/05 10:28:48;;;;;;;8.73;4.03;;;2.80;99.90;;;;;;5099614;28;20487;-53
2021/01/05 10:31:13;;;;;;;5.73;3.33;;;2.90;99.90;;;;;;5098010;28;20056;-53
2021/01/05 10:33:39;;;;;;;5.90;2.73;;;3.00;99.90;;;;;;5099240;28;19915;-52
2021/01/05 10:36:06;;;;;;;4.53;2.90;;;3.10;99.90;;;;;;5099065;28;20106;-53
2021/01/05 10:38:31;;;;;;;5.00;2.93;;;3.40;99.90;;;;;;5098352;28;20028;-53
2021/01/05 10:40:57;;;;;;;7.47;2.63;;;4.00;99.90;;;;;;5099249;28;20415;-52
2021/01/05 10:43:23;;;;;;;6.77;3.30;;;4.10;99.90;;;;;;5099056;28;20050;-52
2021/01/05 10:45:48;;;;;;;7.63;3.73;;;3.90;99.90;;;;;;5099189;28;20059;-53
2021/01/05 10:48:14;;;;;;;6.43;3.30;;;3.80;99.90;;;;;;5098837;28;20482;-52
2021/01/05 10:50:40;;;;;;;9.80;3.23;;;3.80;99.90;;;;;;5098658;28;20028;-53
2021/01/05 10:53:06;;;;;;;5.23;2.90;;;3.70;99.90;;;;;;5098719;28;20115;-52
2021/01/05 10:55:32;;;;;;;6.27;3.33;;;3.70;99.90;;;;;;5097629;28;20122;-53
2021/01/05 10:57:57;;;;;;;11.27;4.47;;;3.50;99.90;;;;;;5098756;28;20414;-53
2021/01/05 11:00:24;;;;;;;8.70;3.80;;;3.50;99.90;;;;;;5098911;28;20032;-52
2021/01/05 11:02:49;;;;;;;6.57;4.10;;;3.40;99.90;;;;;;5098466;28;20051;-53
2021/01/05 11:05:17;;;;;;;11.10;3.87;;;3.40;99.90;;;;;;5098584;28;20115;-53
2021/01/05 11:07:48;;;;;;;9.40;4.13;;;3.40;99.90;;;;;;5098314;28;20024;-52
2021/01/05 11:10:14;;;;;;;10.10;4.30;;;3.50;99.90;;;;;;5098654;28;20032;-52
2021/01/05 11:12:40;;;;;;;9.27;3.83;;;3.70;99.90;;;;;;5097777;28;20043;-59
2021/01/05 11:15:06;;;;;;;7.97;4.17;;;3.60;99.90;;;;;;5098557;28;19935;-57
2021/01/05 11:17:32;;;;;;;10.83;3.60;;;3.60;99.90;;;;;;5098823;28;20032;-58
2021/01/05 11:19:57;;;;;;;5.27;3.40;;;3.80;99.90;;;;;;5094025;28;20048;-58
2021/01/05 11:22:23;;;;;;;9.73;6.53;;;4.00;99.90;;;;;;5113035;28;20032;-58
2021/01/05 11:24:49;;;;;;;6.73;3.73;;;4.20;99.90;;;;;;5109138;28;20108;-57
2021/01/05 11:27:16;;;;;;;5.47;3.13;;;4.50;99.90;;;;;;5091829;28;20126;-57
2021/01/05 11:29:44;;;;;;;6.83;3.53;;;4.70;99.90;;;;;;5118507;28;20023;-57
2021/01/05 11:32:17;;;;;;;7.97;3.47;;;4.60;99.90;;;;;;5101429;28;20063;-58
2021/01/05 11:34:43;;;;;;;5.55;3.03;;;4.60;99.90;;;;;;5096079;28;20073;-58
2021/01/05 11:37:20;;;;;;;9.70;4.20;;;4.70;99.90;;;;;;5097200;28;20036;-58
2021/01/05 11:39:47;;;;;;;6.47;3.73;;;4.50;99.90;;;;;;5097954;28;19914;-58
2021/01/05 11:42:16;;;;;;;6.03;3.33;;;4.50;99.90;;;;;;5098177;28;20465;-61
2021/01/05 11:44:44;;;;;;;7.67;3.73;;;4.30;99.90;;;;;;5095012;28;20027;-58
2021/01/05 11:47:11;;;;;;;5.60;3.33;;;4.20;99.90;;;;;;5097022;28;20032;-56
2021/01/05 11:49:37;;;;;;;6.27;2.97;;;4.30;99.90;;;;;;5096553;28;20073;-57
2021/01/05 11:52:02;;;;;;;7.07;3.90;;;4.30;99.90;;;;;;5095752;28;20040;-57
2021/01/05 11:54:28;;;;;;;6.13;3.90;;;4.10;99.90;;;;;;5096022;28;20403;-57
2021/01/05 11:56:56;;;;;;;5.23;3.80;;;4.10;99.90;;;;;;5097759;28;20028;-57
2021/01/05 11:59:21;;;;;;;10.43;4.47;;;4.10;99.90;;;;;;5097155;28;20032;-58
2021/01/05 12:01:47;;;;;;;9.30;3.53;;;4.20;99.90;;;;;;5101569;28;20472;-57
2021/01/05 12:04:14;;;;;;;7.77;4.57;;;4.20;99.90;;;;;;5107872;28;20027;-59
2021/01/05 12:06:39;;;;;;;4.70;3.60;;;4.30;99.90;;;;;;5105649;28;20032;-58
2021/01/05 12:09:08;;;;;;;6.57;3.50;;;4.30;99.90;;;;;;5117876;28;20119;-58
2021/01/05 12:11:35;;;;;;;9.40;3.83;;;4.30;99.90;;;;;;5100593;28;20028;-58
2021/01/05 12:14:01;;;;;;;7.67;4.80;;;4.20;99.90;;;;;;5097302;28;20032;-58
2021/01/05 12:16:37;;;;;;;8.97;4.03;;;4.10;99.90;;;;;;5097474;28;20119;-57
2021/01/05 12:19:13;;;;;;;5.93;3.97;;;4.00;99.90;;;;;;5097187;28;20060;-58
2021/01/05 12:21:40;;;;;;;7.40;4.60;;;3.80;99.90;;;;;;5078592;28;20028;-58
2021/01/05 12:24:09;;;;;;;7.87;4.53;;;3.70;99.90;;;;;;5101980;28;20062;-58
2021/01/05 12:26:37;;;;;;;9.63;4.80;;;3.70;99.90;;;;;;5084251;28;20367;-58
2021/01/05 12:29:09;;;;;;;9.00;5.00;;;3.60;99.90;;;;;;5087479;28;20092;-58
2021/01/05 12:31:45;;;;;;;9.27;4.30;;;3.60;99.90;;;;;;5117355;28;20471;-57
2021/01/05 12:34:13;;;;;;;11.13;4.13;;;3.70;99.90;;;;;;5116852;28;20264;-58
2021/01/05 12:36:40;;;;;;;8.40;5.40;;;3.70;99.90;;;;;;5105471;28;19972;-58
2021/01/05 12:39:09;;;;;;;9.07;3.97;;;3.80;99.90;;;;;;5094870;28;20028;-57
2021/01/05 12:41:38;;;;;;;7.33;3.50;;;3.90;99.90;;;;;;5093427;28;20077;-58
2021/01/05 12:44:06;;;;;;;8.43;4.23;;;4.00;99.90;;;;;;5078176;28;19905;-57
2021/01/05 12:46:35;;;;;;;7.37;3.53;;;4.00;99.90;;;;;;5076449;28;19931;-57
2021/01/05 12:49:01;;;;;;;6.10;2.87;;;4.10;99.90;;;;;;5076391;28;20032;-57
2021/01/05 12:51:29;;;;;;;7.73;3.63;;;4.10;99.90;;;;;;5075572;28;20119;-57
2021/01/05 12:53:55;;;;;;;8.53;3.47;;;4.10;99.90;;;;;;5076661;28;20467;-57
2021/01/05 12:56:21;;;;;;;9.20;3.97;;;4.10;99.90;;;;;;5090453;28;20118;-58
2021/01/05 12:58:46;;;;;;;8.67;3.83;;;4.30;99.90;;;;;;5096363;28;20127;-57
2021/01/05 13:01:17;;;;;;;7.20;3.33;;;4.30;99.90;;;;;;5096239;28;20104;-57
2021/01/05 13:03:45;;;;;;;6.60;3.80;;;4.40;99.90;;;;;;5096562;28;20052;-57
2021/01/05 13:06:11;;;;;;;12.00;4.10;;;4.40;99.90;;;;;;5096581;28;20035;-58
2021/01/05 13:08:37;;;;;;;8.30;3.50;;;4.40;99.90;;;;;;5096118;28;20023;-57
2021/01/05 13:11:07;;;;;;;6.20;4.10;;;4.30;99.90;;;;;;5096074;28;20024;-57